x

8454049 - Quonset Point, Ri (qptr1) Weather Station

11:48 - Sat 31st Jan 2015 All times are EST. -5 hours from GMT.

  • Wind
    11mph, 15mph gusts
  • Sea Temp 35°f
  • Aire Temp 15°f
  • Sea Pressure 1018.7mb
  • 8454049 - Quonset Point, Ri
  • 8454049 - Quonset Point, Ri

More Historic Weather Station data

Upgrade to MSW Pro to gain access to the past 30 days of data for over 8000 Wavebouys and Weather Stations around the globe.

Join Pro

Comparision Forecast

View Surf forecast
   
sáb 01/31 11:48 11 15 mph 1018.7mb 35f 15f
11:42 9 14 mph 1018.8mb 35f 15f
11:30 8 11 mph 1018.7mb 35f 15f
10:54 8 14 mph 1018.5mb 35f 16f
10:48 8 11 mph 1018.4mb 35f 16f
10:36 9 11 mph 1018.6mb 35f 16f
10:30 7 13 mph 1018.7mb - 16f
10:12 7 10 mph 1018.5mb 35f 16f
9:48 7 10 mph 1018.1mb 35f 16f
9:42 9 13 mph 1018.1mb 35f 17f
9:24 10 14 mph 1017.8mb 35f 17f
9:18 9 15 mph - 35f 17f
9:00 11 17 mph 1017.5mb 35f 18f
8:54 15 18 mph 1017.5mb 35f 18f
8:36 7 10 mph 1017.3mb 35f 18f
8:24 11 16 mph 1017.2mb 35f 19f
8:06 11 18 mph 1016.8mb 35f 19f
8:00 11 17 mph 1016.8mb 35f 19f
7:54 13 18 mph 1016.7mb 35f 19f
7:36 11 16 mph 1016.7mb 34f 19f
7:18 9 14 mph 1016.4mb 34f 19f
7:06 15 17 mph 1016.3mb 34f 19f
7:00 10 17 mph 1016.4mb 34f 19f
6:48 16 20 mph 1016.2mb 34f 19f
5:24 16 23 mph 1014.8mb 34f 20f
5:18 9 18 mph 1014.7mb 34f 20f
4:48 11 18 mph 1014.2mb 34f 21f
4:36 14 24 mph 1013.9mb 34f 22f
4:30 18 29 mph 1013.7mb 34f 22f
4:24 17 24 mph 1013.5mb 34f 22f
4:06 17 29 mph 1013.2mb 34f 23f
4:00 15 29 mph 1013mb 34f 23f
3:54 21 28 mph 1012.8mb 34f 23f
3:48 21 26 mph 1012.8mb 34f 23f
3:42 16 24 mph 1012.6mb 34f 24f
3:30 16 22 mph 1012.3mb 35f 24f
3:18 17 25 mph 1012.2mb 35f 24f
3:06 17 23 mph 1012mb 35f 24f
3:00 18 25 mph 1011.9mb 35f 24f
2:42 18 29 mph 1011.7mb 35f 24f
2:24 17 33 mph 1011.5mb 35f 24f
2:18 23 30 mph 1011.3mb 35f 24f
2:06 22 34 mph 1011.4mb 35f 24f
1:54 17 25 mph 1011.3mb 35f 24f
1:42 22 33 mph 1011.1mb 35f 23f
1:36 23 31 mph 1011mb 35f 23f
1:30 16 26 mph 1011.2mb 35f 23f
1:24 20 25 mph 1011.1mb 35f 22f
12:48 24 33 mph 1011mb 35f 20f
12:42 29 40 mph 1011mb 35f 20f
12:36 21 31 mph 1011.1mb 35f 20f
12:30 23 34 mph 1011mb 35f 20f
12:24 14 30 mph 1011.2mb 35f 20f
12:18 21 32 mph 1011.2mb 35f 19f
12:12 21 33 mph 1011.1mb 35f 19f
12:06 25 33 mph 1011mb 35f 19f
12:00 22 31 mph 1011.2mb 35f 18f
11:54 25 32 mph 1011.3mb 35f 18f
11:48 22 30 mph 1011.4mb 35f 19f
11:42 17 29 mph 1011.6mb 35f 19f
11:24 22 28 mph 1011.5mb 35f 18f
11:18 22 29 mph 1011.5mb 35f 18f
11:12 22 32 mph 1011.4mb 35f 18f
11:00 20 28 mph 1011.4mb 35f 17f
10:48 22 34 mph 1011.3mb 35f 17f
10:42 26 34 mph 1011.1mb 35f 17f
10:36 25 39 mph 1011.1mb 35f 17f
10:30 22 33 mph 1011.1mb 35f 17f
9:48 23 32 mph 1010.6mb 35f 16f
9:24 16 29 mph 1010.6mb 34f 15f
9:06 17 33 mph 1010.4mb 34f 14f
9:00 21 34 mph 1010.2mb 34f 14f
8:48 18 33 mph 1010.3mb 34f 14f
8:36 25 33 mph 1010.1mb 34f 14f
8:30 22 30 mph 1010.1mb 34f 15f
8:24 22 31 mph 1010.1mb 34f 14f
8:18 21 30 mph 1010mb 34f 14f
8:00 21 30 mph 1009.8mb 34f 15f
7:54 21 34 mph 1009.8mb 34f 15f
7:42 24 33 mph 1009.7mb 34f 15f
7:36 21 30 mph 1009.7mb 34f 15f
7:30 25 32 mph 1009.6mb 34f 14f
7:24 20 31 mph 1009.6mb 34f 14f
7:12 21 30 mph 1009.5mb 34f 14f
7:00 22 33 mph 1009.4mb 34f 14f
6:48 21 33 mph 1009.3mb 34f 14f
6:42 25 33 mph 1009.1mb 34f 14f
6:30 20 33 mph 1008.9mb 34f 15f
6:24 20 32 mph 1008.8mb 34f 14f
6:18 21 34 mph 1008.9mb 34f 14f
6:12 24 33 mph 1008.7mb 34f 15f
6:00 21 33 mph 1008.6mb 34f 14f
5:54 17 31 mph 1008.5mb 34f 15f
5:48 23 32 mph 1008.4mb 34f 14f
5:42 22 30 mph 1008.4mb 34f 14f
5:36 20 33 mph 1008.4mb 34f 14f
5:24 21 32 mph 1008.4mb 34f 15f
5:18 21 29 mph 1008.4mb 34f 15f
5:12 20 29 mph 1008.4mb 33f 15f
5:06 21 26 mph 1008.4mb 33f 15f
5:00 21 30 mph 1008.3mb 33f 15f
4:54 18 29 mph 1008.4mb 33f 15f
4:48 20 30 mph 1008.3mb 33f 15f
4:42 21 29 mph 1008.2mb 33f 15f
4:36 20 29 mph 1008.2mb 33f 15f
4:30 18 28 mph 1008.2mb 33f 15f
4:12 15 25 mph 1008.5mb 33f 16f
4:06 16 29 mph 1008.4mb 33f 16f
4:00 17 23 mph 1008.3mb 33f 16f
3:48 21 25 mph 1008.2mb 33f 15f
3:30 16 22 mph 1008.2mb 33f 16f
3:06 15 24 mph 1008.1mb 34f 16f
2:54 16 24 mph 1008.1mb 34f 17f
2:42 21 31 mph 1007.9mb 34f 17f
2:36 21 29 mph 1007.8mb 34f 17f
2:30 18 24 mph 1007.8mb 34f 17f
2:24 18 25 mph 1007.9mb 34f 17f
2:18 20 26 mph 1007.8mb 34f 17f
1:42 18 26 mph 1007.9mb 34f 18f
12:00 24 30 mph 1007.5mb 35f 21f
vie 01/30 11:18 21 32 mph 1007.3mb 35f 23f
10:00 18 26 mph 1007.5mb 35f 27f
9:06 25 44 mph 1006.9mb 35f 28f
7:24 16 22 mph 1007mb 34f 32f
6:24 11 17 mph 1007mb 34f 33f
4:36 11 16 mph 1006.4mb 34f 34f
3:54 8 15 mph 1006.2mb 33f 34f
2:12 7 10 mph 1006.3mb 33f 34f
1:12 6 7 mph 1006.1mb 33f 34f
1:06 5
mph
1006.2mb 33f 34f
1:00 5 6 mph 1006.3mb 33f 34f
12:54 6 7 mph 1006.4mb 33f 34f
12:48 3 6 mph 1006.6mb 33f 33f
12:42 3 5 mph 1006.6mb 33f 33f
12:36 3 6 mph 1006.7mb 33f 33f
12:30 5 7 mph 1006.7mb 33f 33f
12:24 5 6 mph 1006.8mb 33f 33f
12:18 6 8 mph 1007mb 33f 33f
12:12 6 8 mph 1007.1mb 33f 33f
12:06 7 10 mph 1007.1mb 33f 33f
12:00 9 13 mph 1007.3mb 33f 33f
11:54 7 10 mph 1007.4mb 33f 33f
11:48 1 2 mph 1007.4mb 33f 33f
11:42  -  1 mph 1007.7mb 33f 33f
11:36  -  1 mph 1007.7mb 33f 33f
11:30  -  2 mph 1007.7mb 33f 33f
11:24 1 2 mph 1007.8mb 33f 32f
11:18 2
mph
1008mb 33f 32f
11:12 2 3 mph 1008.1mb 33f 32f
11:06 2 3 mph 1008.2mb 33f 33f
11:00  -  1 mph 1008.2mb 33f 33f
10:54 1 2 mph 1008.2mb 33f 33f
10:48 1 2 mph 1008.2mb 33f 33f
10:42 1 2 mph 1008.3mb 33f 32f
10:36 2
mph
1008.4mb 33f 32f
10:30 2 3 mph 1008.4mb 33f 33f
10:24 3
mph
1008.7mb 33f 33f
10:18 3
mph
1008.9mb 33f 33f
10:12 2
mph
1008.9mb 33f 32f
10:06 2
mph
1009mb 33f 33f
10:00 2
mph
1009mb 33f 32f
9:54 2
mph
1009mb 33f 32f
9:48 2
mph
1009.1mb 33f 33f
9:42 2
mph
1009.1mb 33f 33f
9:36 2 3 mph 1009.1mb 33f 33f
9:30 2 3 mph 1009.1mb 33f 33f
9:24 2
mph
1009.1mb 33f 33f
9:18 2
mph
1009.2mb 33f 33f
9:12 2
mph
1009.3mb 33f 33f
9:06 2
mph
1009.4mb 33f 33f
9:00 2
mph
1009.4mb 33f 33f
8:54 2
mph
1009.5mb 33f 33f
8:48 1 2 mph 1009.5mb 33f 33f
8:42 2
mph
1009.6mb 34f 33f
8:36 2
mph
1009.5mb 34f 33f
8:30 1 2 mph 1009.5mb 34f 33f
8:24 1 2 mph 1009.4mb 34f 33f
8:18 1 2 mph 1009.5mb 34f 33f
8:12 1 2 mph 1009.6mb 34f 33f
8:06 2
mph
1009.7mb 34f 33f
8:00 2 6 mph 1009.8mb 34f 33f
7:54 2 5 mph 1009.8mb 34f 33f
7:48 3 6 mph 1009.8mb 34f 33f
7:42 3 6 mph 1009.9mb 34f 33f
7:36 2 3 mph 1009.9mb 34f 33f
7:30 2
mph
1010mb 34f 33f
7:24 1 2 mph 1010.1mb 34f 33f
7:18 2
mph
1010.2mb 34f 33f
7:12 2 3 mph 1010.2mb 34f 33f
7:06 3 5 mph 1010.2mb 34f 33f
7:00 3 5 mph 1010.2mb 34f 33f
6:54 5
mph
1010.3mb 34f 33f
6:48 3 5 mph 1010.3mb 34f 33f
6:42 2 3 mph 1010.4mb 34f 33f
6:36 2 3 mph 1010.5mb 34f 34f
6:30 2
mph
1010.6mb 34f 34f
6:24  -  1 mph 1010.7mb 34f 34f
6:18 1
mph
1010.7mb 34f 34f
6:12 1
mph
1010.7mb 33f 34f
6:06  -  mph 1010.7mb 33f 34f
6:00  -  1 mph 1010.7mb 33f 35f
5:54  -  1 mph 1010.7mb 33f 35f
5:48  -  1 mph 1010.7mb 33f 35f
5:42  -  2 mph 1010.8mb 33f 35f
5:36  -  5 mph 1011mb 33f 35f
5:30 3 6 mph 1011.1mb 33f 36f
5:24 3 6 mph 1011.2mb 33f 36f
5:18 3 5 mph 1011.3mb 33f 36f
5:12 5 6 mph 1011.3mb 32f 36f
5:06 3 7 mph 1011.3mb 32f 36f
5:00 7 8 mph 1011.3mb 32f 36f
4:54 6 8 mph 1011.2mb 32f 36f
4:48 3 7 mph 1011.2mb 32f 36f
4:42  -  3 mph 1011.4mb 32f 35f
4:36 3 14 mph 1011.5mb 32f 35f
4:30 13 16 mph 1011.5mb 32f 37f
4:24 10 13 mph 1011.8mb 32f 35f
4:18 6 9 mph 1011.7mb 32f 35f
4:12 9 14 mph 1011.9mb 32f 35f
4:06 9 11 mph 1011.9mb 32f 35f
4:00 6 8 mph 1012mb 32f 35f
3:54 7 9 mph 1012.2mb 32f 35f
3:48 7 9 mph 1012.2mb 32f 35f
3:42 3 5 mph 1012.3mb 32f 34f
3:36 5 8 mph 1012.4mb 32f 34f
3:30 7 10 mph 1012.5mb 32f 34f
3:24 7 9 mph 1012.6mb 32f 34f
3:18 7 8 mph 1012.8mb 32f 34f
3:12 6 8 mph 1013mb 32f 34f
3:06 6 7 mph 1013.1mb 32f 33f
3:00 6 8 mph 1013.4mb 32f 33f
2:54 7 9 mph 1013.5mb 32f 33f
2:48 9 11 mph 1013.7mb 32f 33f
2:42 9 11 mph 1013.7mb 32f 34f
2:36 9 11 mph 1013.9mb 32f 34f
2:30 10 11 mph 1013.8mb 32f 34f
2:24 8 13 mph 1014mb 33f 34f
2:18 13 14 mph 1014.1mb 33f 35f
2:12 10 14 mph 1014.2mb 33f 35f
2:06 11 13 mph 1014.4mb 33f 35f
2:00 11 14 mph 1014.5mb 33f 35f
1:54 11 14 mph 1014.7mb 33f 35f
1:48 10 14 mph 1014.8mb 33f -
1:42 11 14 mph 1014.9mb 33f -
1:36 10 13 mph 1015.1mb 33f -
1:30 11 13 mph 1015.1mb 33f 35f
1:24 10 13 mph 1015.2mb 33f 35f
1:18 10 13 mph 1015.4mb 33f 35f
1:12 10 14 mph 1015.4mb 33f 35f
1:06 13 14 mph 1015.4mb 33f 35f
1:00 11 14 mph 1015.4mb 33f 35f
12:54 8 10 mph 1015.5mb 33f 35f
12:48 8 10 mph 1015.6mb 33f 35f
12:42 9 13 mph 1015.8mb 33f 35f
12:36 9 10 mph 1016mb 33f 35f
12:30 8 9 mph 1016.1mb 33f 35f
12:24 7 8 mph 1016.2mb 33f 35f
12:18 7 8 mph 1016.2mb 33f 35f
12:12 7 8 mph 1016.4mb 33f 35f
12:06 7 8 mph 1016.6mb 33f 35f
12:00 8
mph
1016.7mb 33f 35f
jue 01/29 11:54 7 8 mph 1016.9mb 33f 34f
11:48 7 8 mph 1017mb 33f 34f
11:42 7 9 mph 1017mb 33f 34f
11:36 8 9 mph 1017.1mb 33f 34f
11:30 8 9 mph 1017.2mb 33f 34f
11:24 8 9 mph 1017.3mb 33f 34f
11:18 9 10 mph 1017.4mb 33f 34f
11:12 8 9 mph 1017.5mb 33f 34f
11:06 8 9 mph 1017.6mb 33f 34f
11:00 8 10 mph 1017.7mb 33f 34f
10:54 9 11 mph 1017.9mb 33f 34f
10:48 9 10 mph 1018mb 33f 34f
10:42 9 10 mph 1018mb 33f 34f
10:36 9 10 mph 1018.2mb 33f 34f
10:30 9 11 mph 1018.2mb 33f 33f
10:24 9 10 mph 1018.3mb 33f 33f
10:18 10 11 mph 1018.3mb 33f 33f
10:12 3 5 mph 1018.5mb 33f 31f
10:06 3 5 mph 1018.7mb 33f 31f
10:00 2 3 mph 1018.8mb 33f 31f
9:54 1 2 mph 1019mb 33f 31f
9:48 1 2 mph 1018.9mb 33f 30f
9:42  -  1 mph 1019.1mb 33f 30f
9:36  -  2 mph 1019.2mb 33f 30f
9:30 2 3 mph 1019.3mb 33f 30f
9:24 3 5 mph 1019.4mb 33f 30f
9:18 3 5 mph 1019.4mb 33f 30f
9:12 2 5 mph 1019.4mb 33f 30f
9:06 2
mph
1019.5mb 33f 30f
9:00 2
mph
1019.5mb 33f 30f
8:54  -  1 mph 1019.5mb 33f 30f
8:48  -  1 mph 1019.5mb 33f 30f
8:42 1
mph
1019.5mb 33f 30f
8:36  -  2 mph 1019.6mb 33f 30f
8:30 1
mph
1019.6mb 33f 30f
8:24 1 2 mph 1019.7mb 33f 30f
8:18 2 3 mph 1019.8mb 33f 30f
8:12 2 3 mph 1019.8mb 33f 30f
8:06 1 2 mph 1020.1mb 33f 30f
8:00 2
mph
1020.3mb 33f 30f
7:54 2 3 mph 1020.5mb 33f 30f
7:48 2 3 mph 1020.6mb 33f 29f
7:42 2 5 mph 1020.7mb 33f 29f
7:36 5 7 mph 1020.8mb 33f 29f
7:30 3 5 mph 1020.9mb 33f 29f
7:24 3 5 mph 1020.9mb 33f 29f
7:18 5 6 mph 1020.8mb 33f 29f
7:12 6
mph
1021mb 33f 29f
7:06 5 6 mph 1020.9mb 33f 30f
7:00 5 6 mph 1020.9mb 33f 30f
6:54 6 7 mph 1021mb 33f 30f
6:48 6
mph
1021mb 33f 30f
6:42 6 7 mph 1021mb 33f 30f
6:36 6 7 mph 1021.2mb 33f 30f
6:30 7 8 mph 1021.2mb 33f 29f
6:24 6 8 mph 1021.2mb 33f 29f
6:18 7 9 mph 1021.3mb 33f 29f
6:12 8 9 mph 1021.4mb 33f 30f
6:06 8 9 mph 1021.4mb 33f 30f
6:00 7 9 mph 1021.3mb 33f 30f
5:54 8 9 mph 1021.4mb 33f 30f
5:48 8 9 mph 1021.5mb 33f 30f
5:42 8 9 mph 1021.7mb 33f 30f
5:36 8 10 mph 1021.7mb 33f 30f
5:30 9 10 mph 1021.9mb 33f 30f
5:24 8 9 mph 1021.9mb 33f 30f
5:18 8 9 mph 1021.9mb 33f 30f
5:12 8 9 mph 1021.9mb 33f 30f
5:06 8 9 mph 1021.8mb 33f 30f
5:00 7 9 mph 1021.7mb 33f 30f
4:54 8 10 mph 1021.7mb 33f 31f
4:48 9 10 mph 1021.8mb 33f 31f
4:42 8 10 mph 1021.8mb 33f 31f
4:36 9
mph
1021.8mb 33f 31f
4:30 9 10 mph 1021.8mb 33f 31f
4:24 9 10 mph 1021.9mb 33f 31f
4:18 9 10 mph 1022mb 33f 31f
4:12 8 10 mph 1022.1mb 33f 31f
4:06 9 10 mph 1022.1mb 33f 31f
4:00 9
mph
1022.1mb 33f 31f
3:54 9 10 mph 1022.1mb 33f 32f
3:48 7 9 mph 1022.1mb 33f 32f
3:42 8 9 mph 1022.3mb 33f 32f
3:36 6 8 mph 1022.3mb 33f 32f
3:30 6 7 mph 1022.4mb 33f 32f
3:24 6 7 mph 1022.3mb 33f 32f
3:18 6
mph
1022.4mb 33f 32f
3:12 6 7 mph 1022.5mb 33f 32f
3:06 6 7 mph 1022.6mb 33f 32f
3:00 6 7 mph 1022.7mb 33f 32f
2:54 6 7 mph 1022.8mb 33f 32f
2:48 6 7 mph 1022.8mb 33f 32f
2:42 6
mph
1022.9mb 33f 32f
2:36 3 6 mph 1022.9mb 33f 31f
2:30 5
mph
1023mb 32f 31f
2:12 2
mph
1023.1mb 32f 30f
2:06 1 2 mph 1023.2mb 32f 30f
2:00 1 3 mph 1023.4mb 32f 30f
1:54 1 2 mph 1023.4mb 32f 30f
1:48 1 2 mph 1023.5mb 32f 30f
1:30 2
mph
1023.5mb 32f 29f
1:24  -  2 mph 1023.7mb 32f 29f
1:18 1
mph
1023.7mb 32f 29f
1:12  -  mph 1023.8mb 32f 29f
1:06  -  2 mph 1023.9mb 32f 29f
1:00 1 2 mph 1023.8mb 32f 28f
12:54  -  2 mph 1024mb 32f 28f
12:48 1 2 mph 1024mb 32f 28f
12:42 2 3 mph 1024mb 32f 28f
12:36 3
mph
1024mb 31f 27f
12:30 3
mph
1024.2mb 31f 27f
12:24 2 3 mph 1024.3mb 31f 27f
12:18 1 2 mph 1024.5mb 31f 27f
12:12 2 3 mph 1024.7mb 31f 27f
12:06 2 3 mph 1024.7mb 31f 26f
12:00 2 3 mph 1024.8mb 31f 26f
11:54 2 3 mph 1024.9mb 31f 26f
11:48 3
mph
1025.1mb 31f 25f
11:42 2 3 mph 1025.3mb 31f 25f
11:36 1 2 mph 1025.5mb 31f 26f
11:30 1 2 mph 1025.6mb 31f 25f
11:24 1 2 mph 1025.8mb 31f 25f
11:18 1 2 mph 1026mb 31f 25f
11:12  -  2 mph 1026.1mb 31f 25f
11:06 2 3 mph 1026.2mb 31f 23f
11:00 2 3 mph 1026.2mb 31f 23f
10:54 2 5 mph 1026.3mb 31f 23f
10:48 3 5 mph 1026.2mb 31f 22f
9:48 3 5 mph 1026.8mb 32f 21f
9:24 2 3 mph 1026.9mb 32f 20f
9:18 5
mph
1026.8mb 32f 20f
8:54 3
mph
1026.8mb 32f 18f
8:30 3
mph
1026.5mb 32f 17f
8:24 2 3 mph 1026.5mb 32f 17f
8:12 3
mph
1026.7mb 32f 16f
8:06 2 3 mph 1026.6mb 32f 16f
8:00 2 3 mph 1026.5mb 32f 17f
7:54 2 3 mph 1026.5mb 32f 16f
7:48 2 3 mph 1026.4mb 32f 17f
7:42 2 3 mph 1026.4mb 32f 17f
7:36 3 5 mph 1026.4mb 32f 16f
7:30 2 3 mph 1026.3mb 33f 16f
7:24 2 3 mph 1026.2mb 33f 15f
7:12 2 5 mph 1026.2mb 33f 15f
7:06 3 5 mph 1026.1mb 33f 14f
7:00 5 6 mph 1026mb 33f 13f
6:54 5 6 mph 1025.9mb 33f 13f
6:48 5
mph
1025.8mb 33f 14f
6:36 3
mph
1025.7mb 33f 14f
6:24 3 5 mph 1025.5mb 33f 15f
6:12 5 6 mph 1025.6mb 33f 15f
6:06 6
mph
1025.4mb 33f 15f
6:00 2
mph
1025.3mb 33f 14f
5:48 2 3 mph 1025.5mb 33f 15f
5:42 2 3 mph 1025.4mb 33f 16f
5:36 2 3 mph 1025.4mb 33f 15f
5:30 1 2 mph 1025.3mb 33f 15f
5:24 1
mph
1025.3mb 33f 15f
5:12 1 2 mph 1025.2mb 32f 14f
5:06 2 5 mph 1025.5mb 32f 13f
5:00 3
mph
1025.6mb 32f 14f
4:54 3 5 mph 1025.5mb 32f 14f
4:48 5
mph
1025.7mb 32f 14f
4:42 3 5 mph 1025.7mb 32f 14f
4:36 5 6 mph 1025.6mb 32f 14f
4:30 5 6 mph 1025.6mb 32f 14f
4:24 3 5 mph 1025.3mb 32f 15f
4:12 2 3 mph 1025mb 31f 15f
4:06 3 6 mph 1025mb 31f 15f
3:42 3
mph
1025.2mb 31f 15f
3:36 3
mph
1025.3mb 31f 15f
3:30 3 5 mph 1025.2mb 31f 15f
3:24 5 6 mph 1025.3mb 31f 16f
3:18 5 6 mph 1025.2mb 31f 17f
3:12 5 6 mph 1025.2mb 31f 17f
3:06 5 6 mph 1025.2mb 31f 17f
3:00 6
mph
1025.2mb 31f 17f
2:54 3 5 mph 1025.1mb 31f 17f
2:48 3
mph
1025.1mb 31f 17f
2:36 2 3 mph 1025.1mb 31f 16f
2:30 2 3 mph 1025mb 31f 16f
2:24 2 5 mph 1025mb 31f 16f
2:12 3 5 mph 1024.7mb 32f 16f
2:06 3 6 mph 1024.7mb 32f 16f
1:54 5 6 mph 1024.7mb 32f 16f
1:36 5 6 mph 1024.4mb 32f 17f
1:30 3 5 mph 1024.4mb 32f 17f
1:24 3 5 mph 1024.3mb 32f 17f
1:18 5
mph
1024.2mb 32f 18f
1:06 2 3 mph 1024.1mb 32f 18f
1:00 1 2 mph 1023.9mb 32f 18f
12:54 2
mph
1023.9mb 32f 18f
12:48 2 3 mph 1023.9mb 32f 18f
12:36 1 3 mph 1023.8mb 32f 18f
12:18 3 5 mph 1023.6mb 32f 18f
12:12 3 5 mph 1023.6mb 32f 18f
12:06 3 6 mph 1023.6mb 32f 18f
12:00 5 8 mph 1023.5mb 32f 18f
mié 01/28 11:54 7 8 mph 1023.6mb 32f 18f
11:42 6 7 mph 1023.5mb 32f 18f
11:36 5 6 mph 1023.6mb 32f 18f
11:30 5 6 mph 1023.5mb 32f 19f
11:12 5
mph
1023.4mb 32f 19f
11:00 6
mph
1023.2mb 32f 19f
10:54 6
mph
1023.2mb 32f 19f
10:42 5 6 mph 1023mb 32f 19f
10:30 5 6 mph 1022.7mb 32f 20f
10:24 5
mph
1022.7mb 32f 19f
10:18 5
mph
1022.6mb 32f 20f
10:12 5
mph
1022.5mb 32f 20f
10:06 5 6 mph 1022.3mb 32f 19f
10:00 5 6 mph 1022.2mb 32f 20f
9:48 5 6 mph 1022mb 32f 20f
9:42 5 6 mph 1022mb 32f 20f
9:36 5 6 mph 1022mb 32f 21f
9:30 5 6 mph 1022mb 32f 21f
9:24 5 7 mph 1021.8mb 32f 21f
9:18 6 7 mph 1021.7mb 32f 21f
9:12 5 6 mph 1021.7mb 32f 21f
9:06 6 7 mph 1021.6mb 32f 21f
9:00 5 6 mph 1021.5mb - -
8:24 5 6 mph 1021.2mb 33f 21f
8:12 6 7 mph 1021.1mb - 23f
8:00 6 8 mph 1020.9mb 33f 23f
7:54 6 7 mph 1020.9mb 33f 23f
7:48 6
mph
1020.8mb 33f 23f
7:42 6 8 mph 1020.7mb 33f 24f
7:06 3 5 mph 1020.2mb 33f 24f
6:42 2 3 mph 1019.9mb 33f 24f
6:36 2 5 mph 1019.8mb 33f 24f
6:24 3 5 mph 1019.5mb 33f 25f
6:06 5 6 mph 1019.2mb 33f 25f
6:00 5 6 mph 1019.1mb 33f 25f
5:54 3
mph
1019mb 33f 25f
5:48 3 5 mph 1018.9mb 33f 25f
5:36 5 6 mph 1018.6mb 33f 25f
5:24 3 6 mph 1018.4mb 33f 25f
5:06 3 5 mph 1017.9mb 33f 25f
5:00  -  mph 1017.7mb 33f -
4:48 5 8 mph 1017.5mb 33f 25f
4:42 8 9 mph 1017.3mb 33f 25f
4:30 8 10 mph 1017.1mb 33f 26f
4:18  -  mph - 32f 26f
4:12  -  mph - 32f 26f
4:06  -  mph - 32f 26f
3:54 13 15 mph 1016.3mb 32f 26f
3:36 10 17 mph 1016.2mb 32f 26f
3:24 11 15 mph 1016mb 32f 26f
3:12 10 15 mph 1015.9mb 32f 26f
3:06 10 14 mph 1015.8mb 32f 26f
2:48 10 14 mph 1015.5mb 32f 25f
2:36 8 10 mph 1015.4mb 32f 24f
2:00 13 15 mph 1015.1mb 32f 23f
1:54 10 14 mph 1015.1mb 32f 24f
1:42 10 14 mph 1015mb 32f 23f
1:36 10 15 mph 1015mb 32f 22f
1:24 14 17 mph 1014.8mb 32f 22f
1:18 11 15 mph 1014.9mb 32f 22f
1:06 11 20 mph 1014.9mb 32f 22f
12:48 10 14 mph 1014.7mb 32f 22f
12:18 13 17 mph 1014.5mb 31f 21f
12:06 13 15 mph 1014.4mb 32f 20f
11:54 10 14 mph 1014.3mb 32f 20f
11:48 7 11 mph 1014.3mb 32f 20f
11:42 10 15 mph 1014.3mb 32f 20f
11:30 11 17 mph 1014.3mb 32f 19f
11:06 15 20 mph 1014.3mb 33f 19f
10:48 10 16 mph 1014.3mb 33f 19f
10:42 11 16 mph 1014.4mb 33f 19f
10:36 14 18 mph 1014.2mb 33f 19f
10:24 15 21 mph 1014mb 33f 19f
10:12 11 20 mph 1014mb 33f 19f
9:48 16 22 mph 1013.7mb 33f 18f
9:42 14 21 mph 1013.7mb 33f 19f
9:36 10 18 mph 1013.6mb 33f 18f
9:30 10 14 mph 1013.5mb 33f 17f
9:18 13 16 mph 1013.5mb 33f 17f
9:12 9 16 mph 1013.4mb 33f 17f
9:06 11 16 mph 1013.4mb 33f 16f
9:00 13 16 mph 1013.3mb 33f 16f
8:54 10 14 mph 1013.3mb 33f 16f
8:48 11 15 mph 1013.2mb 33f 15f
8:42 9 16 mph 1013.2mb 33f 16f
8:36 13 16 mph 1013mb 33f 15f
8:30 11 15 mph 1012.9mb 33f 15f
8:18 13 16 mph 1012.6mb 33f 15f
8:12 11 15 mph 1012.4mb 33f 15f
8:06 13 17 mph 1012.3mb 33f 15f
8:00 16 21 mph 1012.2mb 33f 15f
7:54 11 17 mph 1012.2mb 33f 15f
7:48 15 17 mph 1012mb 33f 15f
7:42 13 20 mph 1012mb 33f 15f
7:30 14 20 mph 1011.7mb 33f 14f
7:24 14 17 mph 1011.6mb 33f 14f
7:18 14 16 mph 1011.6mb 33f 15f
7:12 13 18 mph 1011.5mb 33f 14f
7:06 13 16 mph 1011.4mb 33f 14f
6:54 14 18 mph 1011.1mb 33f 14f
6:42 14 17 mph 1010.9mb 33f 14f
6:30 14 18 mph 1010.7mb 33f 14f
6:18 16 20 mph 1010.6mb 33f 14f
6:12 13 16 mph 1010.5mb 33f 14f
6:06 11 16 mph 1010.5mb 33f 14f
6:00 13 17 mph 1010.3mb 33f 14f
5:54 11 17 mph 1010.3mb 33f 14f
5:48 13 17 mph 1010.2mb - -